createdAt,value
2022-08-07T00:01:44.069Z,13.73
2022-08-07T00:04:24.603Z,13.71
2022-08-07T00:09:35.700Z,13.74
2022-08-07T00:12:02.428Z,13.72
2022-08-07T00:14:31.507Z,13.72
2022-08-07T00:20:02.619Z,13.68
2022-08-07T00:22:35.050Z,13.63
2022-08-07T00:27:52.684Z,13.56
2022-08-07T00:30:21.597Z,13.55
2022-08-07T00:35:35.296Z,13.48
2022-08-07T00:38:03.996Z,13.47
2022-08-07T00:44:00.694Z,13.42
2022-08-07T00:46:02.197Z,13.41
2022-08-07T00:48:32.033Z,13.40
2022-08-07T00:50:59.760Z,13.37
2022-08-07T00:56:13.746Z,13.30
2022-08-07T00:58:46.834Z,13.28
2022-08-07T01:01:17.555Z,13.26
2022-08-07T01:03:56.617Z,13.20
2022-08-07T01:06:28.089Z,13.14
2022-08-07T01:08:55.645Z,13.10
2022-08-07T01:12:26.539Z,13.05
2022-08-07T01:14:09.784Z,13.03
2022-08-07T01:16:37.259Z,12.99
2022-08-07T01:19:18.211Z,12.94
2022-08-07T01:21:47.474Z,12.96
2022-08-07T01:24:22.503Z,12.92
2022-08-07T01:27:03.728Z,12.93
2022-08-07T01:29:34.657Z,12.95
2022-08-07T01:32:05.245Z,12.96
2022-08-07T01:34:37.451Z,12.93
2022-08-07T01:37:05.830Z,12.92
2022-08-07T01:39:40.900Z,12.92
2022-08-07T01:42:40.263Z,12.94
2022-08-07T01:45:10.100Z,12.93
2022-08-07T01:48:20.459Z,12.90
2022-08-07T01:50:30.601Z,12.90
2022-08-07T01:52:58.626Z,12.88
2022-08-07T01:55:51.983Z,12.85
2022-08-07T01:58:28.887Z,12.80
2022-08-07T02:03:50.338Z,12.70
2022-08-07T02:09:03.688Z,12.67
2022-08-07T02:12:03.236Z,12.66
2022-08-07T02:14:40.551Z,12.64
2022-08-07T02:17:09.020Z,12.61
2022-08-07T02:20:07.750Z,12.54
2022-08-07T02:22:25.850Z,12.49
2022-08-07T02:24:54.055Z,12.41
2022-08-07T02:27:22.249Z,12.39
2022-08-07T02:29:54.110Z,12.38
2022-08-07T02:32:29.990Z,12.38
2022-08-07T02:34:58.358Z,12.40
2022-08-07T02:37:26.269Z,12.38
2022-08-07T02:40:11.662Z,12.37
2022-08-07T02:42:41.742Z,12.34
2022-08-07T02:45:57.606Z,12.29
2022-08-07T02:48:01.625Z,12.26
2022-08-07T02:50:33.098Z,12.26
2022-08-07T02:53:05.424Z,12.24
2022-08-07T02:56:03.291Z,12.22
2022-08-07T02:58:23.211Z,12.16
2022-08-07T03:06:25.586Z,11.97
2022-08-07T03:08:59.356Z,11.92
2022-08-07T03:11:28.215Z,11.90
2022-08-07T03:13:57.704Z,11.90
2022-08-07T03:16:29.054Z,11.91
2022-08-07T03:18:58.359Z,11.90
2022-08-07T03:21:25.346Z,11.93
2022-08-07T03:24:20.054Z,11.93
2022-08-07T03:26:43.059Z,11.91
2022-08-07T03:29:18.633Z,11.89
2022-08-07T03:31:49.992Z,11.85
2022-08-07T03:34:21.973Z,11.83
2022-08-07T03:42:16.535Z,11.81
2022-08-07T03:44:47.216Z,11.79
2022-08-07T03:50:03.922Z,11.71
2022-08-07T03:52:32.013Z,11.69
2022-08-07T03:55:07.061Z,11.67
2022-08-07T03:58:34.730Z,11.67
2022-08-07T04:00:30.157Z,11.67
2022-08-07T04:02:59.020Z,11.68
2022-08-07T04:05:39.679Z,11.65
2022-08-07T04:08:11.503Z,11.65
2022-08-07T04:10:39.633Z,11.64
2022-08-07T04:13:15.403Z,11.63
2022-08-07T04:15:42.766Z,11.66
2022-08-07T04:18:57.491Z,11.65
2022-08-07T04:21:07.212Z,11.65
2022-08-07T04:23:43.871Z,11.63
2022-08-07T04:26:21.802Z,11.61
2022-08-07T04:28:48.823Z,11.61
2022-08-07T04:31:19.753Z,11.62
2022-08-07T04:36:27.675Z,11.69
2022-08-07T04:38:58.191Z,11.73
2022-08-07T04:41:24.857Z,11.75
2022-08-07T04:44:13.118Z,11.76
2022-08-07T04:47:04.535Z,11.82
2022-08-07T04:49:39.773Z,11.86
2022-08-07T04:52:08.986Z,11.92
2022-08-07T04:54:50.569Z,11.97
2022-08-07T04:58:11.090Z,12.00
2022-08-07T05:00:18.962Z,12.02
2022-08-07T05:03:17.203Z,12.11
2022-08-07T05:06:16.326Z,12.18
2022-08-07T05:09:08.127Z,12.24
2022-08-07T05:11:56.862Z,12.29
2022-08-07T05:14:56.175Z,12.37
2022-08-07T05:20:10.003Z,12.56
2022-08-07T05:22:38.484Z,12.66
2022-08-07T05:25:08.727Z,12.74
2022-08-07T05:30:29.926Z,12.94
2022-08-07T05:32:57.661Z,13.05
2022-08-07T05:35:33.583Z,13.18
2022-08-07T05:38:09.984Z,13.33
2022-08-07T05:40:50.749Z,13.45
2022-08-07T05:43:19.342Z,13.53
2022-08-07T05:46:06.222Z,13.68
2022-08-07T05:48:33.129Z,13.83
2022-08-07T05:51:01.633Z,13.96
2022-08-07T05:56:13.842Z,14.28
2022-08-07T06:01:26.475Z,14.56
2022-08-07T06:04:05.209Z,14.72
2022-08-07T06:06:33.609Z,14.84
2022-08-07T06:09:01.247Z,15.00
2022-08-07T06:14:20.629Z,15.28
2022-08-07T06:16:56.398Z,15.38
2022-08-07T06:19:49.954Z,15.52
2022-08-07T06:22:23.589Z,15.64
2022-08-07T06:24:57.917Z,15.79
2022-08-07T06:27:44.202Z,15.94
2022-08-07T06:32:56.176Z,16.11
2022-08-07T06:38:04.537Z,16.22
2022-08-07T06:40:46.092Z,16.32
2022-08-07T06:43:21.436Z,16.37
2022-08-07T06:45:49.326Z,16.52
2022-08-07T06:48:16.279Z,16.58
2022-08-07T06:50:52.968Z,16.68
2022-08-07T06:54:12.015Z,16.75
2022-08-07T06:56:14.742Z,16.95
2022-08-07T07:01:24.139Z,17.31
2022-08-07T07:07:00.576Z,17.37
2022-08-07T07:09:31.195Z,17.46
2022-08-07T07:12:08.178Z,17.49
2022-08-07T07:14:47.927Z,17.67
2022-08-07T07:24:11.034Z,17.97
2022-08-07T07:26:33.290Z,17.96
2022-08-07T07:29:39.792Z,18.10
2022-08-07T07:31:47.214Z,18.22
2022-08-07T07:39:51.999Z,18.67
2022-08-07T07:42:32.538Z,18.72
2022-08-07T07:45:01.800Z,18.62
2022-08-07T07:47:29.706Z,18.82
2022-08-07T07:50:33.522Z,18.81
2022-08-07T07:52:47.149Z,18.46
2022-08-07T07:57:58.347Z,18.92
2022-08-07T08:03:16.365Z,19.20
2022-08-07T08:08:34.309Z,19.50
2022-08-07T08:11:09.362Z,19.48
2022-08-07T08:16:39.381Z,19.50
2022-08-07T08:19:09.749Z,19.66
2022-08-07T08:22:12.773Z,19.87
2022-08-07T08:25:18.144Z,19.58
2022-08-07T08:27:56.475Z,19.30
2022-08-07T08:30:29.259Z,19.45
2022-08-07T08:32:59.089Z,19.87
2022-08-07T08:38:18.201Z,20.31
2022-08-07T08:43:59.100Z,20.71
2022-08-07T08:46:39.434Z,21.71
2022-08-07T08:49:17.650Z,22.73
2022-08-07T08:52:16.349Z,23.06
2022-08-07T08:54:49.682Z,23.00
2022-08-07T08:57:30.335Z,22.96
2022-08-07T09:00:08.865Z,23.35
2022-08-07T09:02:52.323Z,24.09
2022-08-07T09:05:36.907Z,24.73
2022-08-07T09:08:29.961Z,24.05
2022-08-07T09:11:24.182Z,24.13
2022-08-07T09:14:13.521Z,23.54
2022-08-07T09:16:55.493Z,24.08
2022-08-07T09:19:53.525Z,24.49
2022-08-07T09:24:33.900Z,24.59
2022-08-07T09:25:53.986Z,25.70
2022-08-07T09:30:01.234Z,25.81
2022-08-07T09:40:34.094Z,25.25
2022-08-07T09:44:05.320Z,25.71
2022-08-07T09:47:52.329Z,26.29
2022-08-07T09:50:01.222Z,25.77
2022-08-07T09:52:39.324Z,25.59
2022-08-07T09:56:03.719Z,27.55
2022-08-07T09:58:50.938Z,27.51
2022-08-07T10:01:51.595Z,28.41
2022-08-07T10:04:32.503Z,28.49
2022-08-07T10:11:07.792Z,29.81
2022-08-07T10:14:00.180Z,30.36
2022-08-07T10:16:50.578Z,29.81
2022-08-07T10:19:38.811Z,29.07
2022-08-07T10:22:33.711Z,29.81
2022-08-07T10:25:42.262Z,29.71
2022-08-07T10:28:28.114Z,30.12
2022-08-07T10:31:11.462Z,30.45
2022-08-07T10:34:15.117Z,30.49
2022-08-07T10:36:50.884Z,30.52
2022-08-07T10:40:03.117Z,31.06
2022-08-07T10:42:59.110Z,30.83
2022-08-07T10:48:35.214Z,29.99
2022-08-07T10:51:01.845Z,29.68
2022-08-07T10:54:00.340Z,29.81
2022-08-07T10:57:05.989Z,30.16
2022-08-07T11:00:39.441Z,30.78
2022-08-07T11:03:11.304Z,30.42
2022-08-07T11:05:48.811Z,30.80
2022-08-07T11:08:47.703Z,30.53
2022-08-07T11:11:24.593Z,30.96
2022-08-07T11:14:57.249Z,30.98
2022-08-07T11:17:07.410Z,32.03
2022-08-07T11:19:57.518Z,32.60
2022-08-07T11:25:42.560Z,31.57
2022-08-07T11:28:25.726Z,31.95
2022-08-07T11:31:23.970Z,30.32
2022-08-07T11:40:12.010Z,32.64
2022-08-07T11:43:09.493Z,32.80
2022-08-07T11:46:11.320Z,32.48
2022-08-07T11:49:27.887Z,31.48
2022-08-07T11:52:05.702Z,32.28
2022-08-07T11:54:56.039Z,32.25
2022-08-07T11:58:00.135Z,31.09
2022-08-07T12:03:58.557Z,32.68
2022-08-07T12:09:23.457Z,33.14
2022-08-07T12:12:11.612Z,32.83
2022-08-07T12:14:55.391Z,32.60
2022-08-07T12:20:19.937Z,31.90
2022-08-07T12:24:05.736Z,32.35
2022-08-07T12:26:41.893Z,31.90
2022-08-07T12:29:37.168Z,31.62
2022-08-07T12:32:42.412Z,32.68
2022-08-07T12:35:12.168Z,33.05
2022-08-07T12:38:10.293Z,32.60
2022-08-07T12:40:47.216Z,32.94
2022-08-07T12:44:05.047Z,32.15
2022-08-07T12:46:26.200Z,32.69
2022-08-07T12:49:25.348Z,31.80
2022-08-07T12:52:14.226Z,32.38
2022-08-07T12:55:24.933Z,32.75
2022-08-07T12:58:10.464Z,33.23
2022-08-07T13:01:13.063Z,33.05
2022-08-07T13:04:02.104Z,32.86
2022-08-07T13:07:01.051Z,32.36
2022-08-07T13:10:20.869Z,33.27
2022-08-07T13:19:02.836Z,32.38
2022-08-07T13:21:51.072Z,31.85
2022-08-07T13:24:36.998Z,31.50
2022-08-07T13:27:20.563Z,32.28
2022-08-07T13:33:02.004Z,31.87
2022-08-07T13:35:59.581Z,31.18
2022-08-07T13:44:34.571Z,30.99
2022-08-07T13:52:40.833Z,30.35
2022-08-07T13:55:26.294Z,30.00
2022-08-07T13:58:27.933Z,30.57
2022-08-07T14:01:13.414Z,30.66
2022-08-07T14:04:07.311Z,31.25
2022-08-07T14:10:12.110Z,31.54
2022-08-07T14:12:11.299Z,30.99
2022-08-07T14:18:12.900Z,30.77
2022-08-07T14:23:59.578Z,29.64
2022-08-07T14:26:29.807Z,30.24
2022-08-07T14:31:56.244Z,28.97
2022-08-07T14:37:01.689Z,29.34
2022-08-07T14:40:16.616Z,28.88
2022-08-07T14:42:25.453Z,28.49
2022-08-07T14:44:59.968Z,28.83
2022-08-07T14:47:47.087Z,28.96
2022-08-07T14:55:55.344Z,27.88
2022-08-07T14:58:26.693Z,27.62
2022-08-07T15:00:59.493Z,27.16
2022-08-07T15:06:14.897Z,27.66
2022-08-07T15:11:53.618Z,27.29
2022-08-07T15:14:30.671Z,27.23
2022-08-07T15:17:00.563Z,27.61
2022-08-07T15:20:31.215Z,28.78
2022-08-07T15:28:30.697Z,27.74
2022-08-07T15:37:03.208Z,28.07
2022-08-07T15:39:17.710Z,29.01
2022-08-07T15:42:44.418Z,29.66
2022-08-07T15:48:00.459Z,31.13
2022-08-07T15:51:01.162Z,31.02
2022-08-07T15:53:48.578Z,30.53
2022-08-07T15:56:33.816Z,30.22
2022-08-07T15:59:16.433Z,29.41
2022-08-07T16:02:01.937Z,30.52
2022-08-07T16:04:41.687Z,29.68
2022-08-07T16:08:31.417Z,29.21
2022-08-07T16:10:17.177Z,29.17
2022-08-07T16:13:59.128Z,28.29
2022-08-07T16:16:43.324Z,27.98
2022-08-07T16:19:41.808Z,27.66
2022-08-07T16:22:54.849Z,28.86
2022-08-07T16:25:53.998Z,29.41
2022-08-07T16:30:08.571Z,29.60
2022-08-07T16:31:51.688Z,29.59
2022-08-07T16:38:03.477Z,30.24
2022-08-07T16:40:05.251Z,30.41
2022-08-07T16:43:01.198Z,30.27
2022-08-07T16:51:52.105Z,28.11
2022-08-07T16:54:32.786Z,27.73
2022-08-07T16:58:02.436Z,27.98
2022-08-07T17:00:29.881Z,28.38
2022-08-07T17:03:09.911Z,28.13
2022-08-07T17:09:09.192Z,28.44
2022-08-07T17:12:04.017Z,28.61
2022-08-07T17:14:56.895Z,28.53
2022-08-07T17:17:46.701Z,29.10
2022-08-07T17:20:23.411Z,29.14
2022-08-07T17:23:12.927Z,29.55
2022-08-07T17:32:03.229Z,29.25
2022-08-07T17:35:51.678Z,28.13
2022-08-07T17:38:11.505Z,28.69
2022-08-07T17:40:56.795Z,27.78
2022-08-07T17:43:39.649Z,27.71
2022-08-07T17:46:34.818Z,27.28
2022-08-07T17:49:15.126Z,27.28
2022-08-07T17:54:55.346Z,26.89
2022-08-07T17:57:56.586Z,26.34
2022-08-07T18:00:27.425Z,24.18
2022-08-07T18:03:09.359Z,23.75
2022-08-07T18:06:03.250Z,23.24
2022-08-07T18:09:01.321Z,22.48
2022-08-07T18:15:01.112Z,21.32
2022-08-07T18:18:45.172Z,21.24
2022-08-07T18:21:06.463Z,21.17
2022-08-07T18:23:42.585Z,20.83
2022-08-07T18:30:04.263Z,20.78
2022-08-07T18:35:57.399Z,20.59
2022-08-07T18:38:57.756Z,20.68
2022-08-07T18:44:45.940Z,20.34
2022-08-07T18:47:49.565Z,20.16
2022-08-07T18:50:47.016Z,20.18
2022-08-07T18:53:19.361Z,19.99
2022-08-07T18:55:56.242Z,19.99
2022-08-07T19:02:36.577Z,19.71
2022-08-07T19:05:14.905Z,19.69
2022-08-07T19:13:23.854Z,19.39
2022-08-07T19:17:00.734Z,19.29
2022-08-07T19:19:13.118Z,19.17
2022-08-07T19:21:55.872Z,19.07
2022-08-07T19:24:43.587Z,18.93
2022-08-07T19:28:30.855Z,18.97
2022-08-07T19:30:58.578Z,18.90
2022-08-07T19:33:10.283Z,18.78
2022-08-07T19:35:56.245Z,18.67
2022-08-07T19:38:28.030Z,18.66
2022-08-07T19:43:52.043Z,18.39
2022-08-07T19:46:29.371Z,18.37
2022-08-07T19:49:16.791Z,18.34
2022-08-07T19:51:51.701Z,18.33
2022-08-07T19:54:34.191Z,18.32
2022-08-07T19:58:01.617Z,18.27
2022-08-07T20:00:08.927Z,18.24
2022-08-07T20:02:42.269Z,18.13
2022-08-07T20:08:22.899Z,18.07
2022-08-07T20:11:03.673Z,18.06
2022-08-07T20:13:43.772Z,18.02
2022-08-07T20:16:35.037Z,17.97
2022-08-07T20:21:48.432Z,17.83
2022-08-07T20:27:07.478Z,17.78
2022-08-07T20:29:47.631Z,17.73
2022-08-07T20:32:26.683Z,17.65
2022-08-07T20:35:08.936Z,17.55
2022-08-07T20:37:55.732Z,17.52
2022-08-07T20:40:32.250Z,17.53
2022-08-07T20:43:01.197Z,17.52
2022-08-07T20:46:28.443Z,17.51
2022-08-07T20:48:30.581Z,17.43
2022-08-07T20:51:02.620Z,17.36
2022-08-07T20:54:01.916Z,17.29
2022-08-07T20:56:33.545Z,17.25
2022-08-07T21:01:55.093Z,17.10
2022-08-07T21:04:28.041Z,17.09
2022-08-07T21:06:58.301Z,17.02
2022-08-07T21:09:51.962Z,16.99
2022-08-07T21:12:26.126Z,16.90
2022-08-07T21:15:02.248Z,16.84
2022-08-07T21:20:26.710Z,16.74
2022-08-07T21:28:49.759Z,16.59
2022-08-07T21:34:34.368Z,16.42
2022-08-07T21:37:58.308Z,16.36
2022-08-07T21:41:04.880Z,16.34
2022-08-07T21:44:03.732Z,16.26
2022-08-07T21:52:18.237Z,16.21
2022-08-07T21:55:10.939Z,16.18
2022-08-07T21:57:59.146Z,16.13
2022-08-07T22:00:26.631Z,16.07
2022-08-07T22:03:03.426Z,16.05
2022-08-07T22:05:45.710Z,16.03
2022-08-07T22:10:59.522Z,15.98
2022-08-07T22:13:51.866Z,15.93
2022-08-07T22:16:44.940Z,15.92
2022-08-07T22:22:27.464Z,15.78
2022-08-07T22:28:30.816Z,15.71
2022-08-07T22:36:38.493Z,15.69
2022-08-07T22:39:13.723Z,15.69
2022-08-07T22:44:33.528Z,15.67
2022-08-07T22:47:24.119Z,15.64
2022-08-07T22:49:58.774Z,15.57
2022-08-07T22:52:46.098Z,15.52
2022-08-07T22:55:23.051Z,15.47
2022-08-07T23:01:49.594Z,15.42
2022-08-07T23:04:56.927Z,15.37
2022-08-07T23:07:53.970Z,15.32
2022-08-07T23:10:42.067Z,15.31
2022-08-07T23:13:48.517Z,15.32
2022-08-07T23:17:15.520Z,15.31
2022-08-07T23:20:40.236Z,15.32
2022-08-07T23:24:06.782Z,15.32
2022-08-07T23:35:40.748Z,15.26
2022-08-07T23:41:21.136Z,15.25
2022-08-07T23:43:55.028Z,15.22
2022-08-07T23:46:37.463Z,15.22
2022-08-07T23:49:50.750Z,15.22
2022-08-07T23:55:52.932Z,15.20
2022-08-07T23:58:29.622Z,15.23
